Time;durP1;ratioP1;P1;durP2;ratioP2;P2;SDS_P1;SDS_P2;PMS_P1;PMS_P2;Temp;Humidity;BMP_temperature;BMP_pressure;BME280_temperature;BME280_humidity;BME280_pressure;Samples;Min_cycle;Max_cycle;Signal;HPM_P1;HPM_P2
2022/08/08 00:00:21;;;;;;;6.00;2.63;;;16.80;99.90;;;;;;5021998;28;20496;-59
2022/08/08 00:03:10;;;;;;;4.60;2.78;;;16.80;99.90;;;;;;5023420;28;20112;-59
2022/08/08 00:05:57;;;;;;;4.47;2.58;;;16.80;99.90;;;;;;5016471;28;20356;-58
2022/08/08 00:08:43;;;;;;;4.63;2.88;;;16.80;99.90;;;;;;5023318;28;20356;-58
2022/08/08 00:11:16;;;;;;;6.45;3.33;;;16.90;99.90;;;;;;5027959;28;20033;-59
2022/08/08 00:14:06;;;;;;;4.05;3.03;;;16.90;99.90;;;;;;5021268;28;20163;-59
2022/08/08 00:16:53;;;;;;;4.82;2.97;;;16.80;99.90;;;;;;5023693;28;20048;-60
2022/08/08 00:19:54;;;;;;;10.90;3.17;;;16.70;99.90;;;;;;5021941;28;20034;-59
2022/08/08 00:22:54;;;;;;;8.00;3.00;;;16.50;99.90;;;;;;5025570;28;20544;-59
2022/08/08 00:25:24;;;;;;;4.05;2.90;;;16.60;99.90;;;;;;4999310;28;20042;-59
2022/08/08 00:27:51;;;;;;;3.13;2.80;;;16.40;99.90;;;;;;5022069;28;20499;-58
2022/08/08 00:30:17;;;;;;;4.88;3.58;;;16.50;99.90;;;;;;5019998;28;20026;-59
2022/08/08 00:32:55;;;;;;;3.45;3.10;;;16.50;99.90;;;;;;5030854;28;20480;-60
2022/08/08 00:35:48;;;;;;;5.60;3.20;;;16.50;99.90;;;;;;5024500;28;20091;-58
2022/08/08 00:38:28;;;;;;;4.82;3.20;;;16.60;99.90;;;;;;5018748;28;20021;-58
2022/08/08 00:41:24;;;;;;;4.85;3.33;;;16.40;99.90;;;;;;5023950;28;20073;-59
2022/08/08 00:44:06;;;;;;;5.03;3.13;;;16.50;99.90;;;;;;5024486;28;20041;-60
2022/08/08 00:47:03;;;;;;;5.88;3.55;;;16.50;99.90;;;;;;5028709;28;20041;-59
2022/08/08 00:49:47;;;;;;;5.35;3.33;;;16.40;99.90;;;;;;5026423;28;20055;-60
2022/08/08 00:52:36;;;;;;;8.10;3.42;;;16.30;99.90;;;;;;5025705;28;20026;-60
2022/08/08 00:55:58;;;;;;;6.80;3.50;;;16.30;99.90;;;;;;5025961;28;20110;-60
2022/08/08 00:58:57;;;;;;;5.85;3.53;;;16.30;99.90;;;;;;4978404;28;20046;-61
2022/08/08 01:01:44;;;;;;;5.38;3.35;;;16.30;99.90;;;;;;5023558;28;20398;-60
2022/08/08 01:04:46;;;;;;;5.18;3.65;;;16.30;99.90;;;;;;5028321;28;20029;-60
2022/08/08 01:07:45;;;;;;;6.13;4.10;;;16.20;99.90;;;;;;5030238;28;20017;-59
2022/08/08 01:10:16;;;;;;;6.30;3.90;;;16.00;99.90;;;;;;5025534;28;20032;-60
2022/08/08 01:13:17;;;;;;;8.20;4.20;;;16.00;99.90;;;;;;5024550;28;20105;-60
2022/08/08 01:16:05;;;;;;;5.82;4.10;;;16.00;99.90;;;;;;5004201;28;20119;-59
2022/08/08 01:19:04;;;;;;;5.95;4.15;;;15.80;99.90;;;;;;5025106;28;20036;-60
2022/08/08 01:21:51;;;;;;;8.80;4.53;;;15.90;99.90;;;;;;5023736;28;20088;-59
2022/08/08 01:24:42;;;;;;;7.20;4.72;;;15.70;99.90;;;;;;5027040;28;20574;-59
2022/08/08 01:27:25;;;;;;;8.00;4.47;;;16.00;99.90;;;;;;5023549;28;20021;-60
2022/08/08 01:30:10;;;;;;;;;;;16.00;99.90;;;;;;5026556;28;20053;-59
2022/08/08 01:33:14;;;;;;;6.60;4.28;;;16.10;99.90;;;;;;5024773;28;19951;-59
2022/08/08 01:35:43;;;;;;;6.93;4.40;;;16.10;99.90;;;;;;5025600;28;20029;-60
2022/08/08 01:38:36;;;;;;;6.82;4.75;;;16.30;99.90;;;;;;5027306;28;20032;-59
2022/08/08 01:41:30;;;;;;;5.20;4.15;;;16.20;99.90;;;;;;5019192;28;20037;-60
2022/08/08 01:44:33;;;;;;;6.80;4.85;;;16.00;99.90;;;;;;5023389;28;20033;-60
2022/08/08 01:47:10;;;;;;;8.45;4.70;;;15.80;99.90;;;;;;5025361;28;20040;-60
2022/08/08 01:49:51;;;;;;;7.28;4.40;;;16.10;99.90;;;;;;5026523;28;20079;-59
2022/08/08 01:52:43;;;;;;;6.45;4.60;;;15.90;99.90;;;;;;5022489;28;20277;-59
2022/08/08 01:55:15;;;;;;;8.27;4.80;;;15.90;99.90;;;;;;5023637;28;20554;-60
2022/08/08 01:57:46;;;;;;;7.05;4.70;;;15.80;99.90;;;;;;5025417;28;20437;-59
2022/08/08 02:00:18;;;;;;;8.77;5.03;;;15.50;99.90;;;;;;5029161;28;20029;-59
2022/08/08 02:02:50;;;;;;;11.70;5.10;;;15.70;99.90;;;;;;5025138;28;20026;-60
2022/08/08 02:05:32;;;;;;;6.97;5.00;;;15.60;99.90;;;;;;5025145;28;20052;-60
2022/08/08 02:08:12;;;;;;;6.25;4.72;;;15.40;99.90;;;;;;5025784;28;20542;-60
2022/08/08 02:10:58;;;;;;;7.20;4.40;;;15.50;99.90;;;;;;5024119;28;20025;-60
2022/08/08 02:13:48;;;;;;;11.45;5.20;;;15.70;99.90;;;;;;5027967;28;20041;-60
2022/08/08 02:16:37;;;;;;;5.63;4.65;;;15.80;99.90;;;;;;5019578;28;20033;-60
2022/08/08 02:19:35;;;;;;;8.02;4.68;;;15.90;99.90;;;;;;5024371;28;20025;-59
2022/08/08 02:25:09;;;;;;;8.20;5.15;;;15.90;99.90;;;;;;5025292;28;20549;-59
2022/08/08 02:27:40;;;;;;;6.78;4.72;;;15.90;99.90;;;;;;5022530;28;20441;-60
2022/08/08 02:30:16;;;;;;;7.03;4.95;;;15.80;99.90;;;;;;5025066;28;20025;-59
2022/08/08 02:33:01;;;;;;;5.72;4.95;;;15.90;99.90;;;;;;5024991;28;20611;-60
2022/08/08 02:35:44;;;;;;;8.65;5.25;;;15.00;99.90;;;;;;5020978;28;20028;-59
2022/08/08 02:38:46;;;;;;;;;;;15.60;99.90;;;;;;5026842;28;20025;-60
2022/08/08 02:41:42;;;;;;;8.20;5.15;;;15.40;99.90;;;;;;5032766;28;19912;-60
2022/08/08 02:44:26;;;;;;;10.15;5.75;;;15.40;99.90;;;;;;5027675;28;20086;-60
2022/08/08 02:46:59;;;;;;;7.63;5.53;;;15.20;99.90;;;;;;5024890;28;20095;-60
2022/08/08 02:49:43;;;;;;;;;;;15.30;99.90;;;;;;5023899;28;20456;-60
2022/08/08 02:52:21;;;;;;;9.75;5.97;;;15.20;99.90;;;;;;5027574;28;19912;-60
2022/08/08 02:55:05;;;;;;;7.03;5.63;;;15.20;99.90;;;;;;5022496;28;20108;-59
2022/08/08 02:58:11;;;;;;;9.65;5.72;;;15.30;99.90;;;;;;5018987;28;20517;-60
2022/08/08 03:00:56;;;;;;;7.78;5.65;;;15.20;99.90;;;;;;5022994;28;20033;-59
2022/08/08 03:03:50;;;;;;;9.25;5.85;;;15.10;99.90;;;;;;5026495;28;20044;-60
2022/08/08 03:06:41;;;;;;;9.75;6.38;;;15.10;99.90;;;;;;5023068;28;20052;-60
2022/08/08 03:09:44;;;;;;;8.18;6.07;;;15.30;99.90;;;;;;5023878;28;20128;-60
2022/08/08 03:12:37;;;;;;;9.43;6.00;;;15.40;99.90;;;;;;5025043;28;20025;-60
2022/08/08 03:15:34;;;;;;;9.30;6.32;;;15.40;99.90;;;;;;5022480;28;20041;-60
2022/08/08 03:18:08;;;;;;;8.18;6.15;;;15.20;99.90;;;;;;5024654;28;20044;-60
2022/08/08 03:20:44;;;;;;;8.18;6.22;;;15.10;99.90;;;;;;5023875;28;20025;-59
2022/08/08 03:23:09;;;;;;;9.13;6.25;;;15.30;99.90;;;;;;5023813;28;20215;-60
2022/08/08 03:25:35;;;;;;;10.50;6.78;;;15.20;99.90;;;;;;5026053;28;20021;-60
2022/08/08 03:28:12;;;;;;;11.43;7.32;;;14.80;99.90;;;;;;5023851;28;20025;-59
2022/08/08 03:30:37;;;;;;;10.80;7.13;;;14.70;99.90;;;;;;5025683;28;20396;-59
2022/08/08 03:33:19;;;;;;;8.75;6.35;;;14.90;99.90;;;;;;5027002;28;20030;-60
2022/08/08 03:35:46;;;;;;;9.13;7.38;;;14.70;99.90;;;;;;5024758;28;20028;-59
2022/08/08 03:38:12;;;;;;;12.98;8.23;;;14.90;99.90;;;;;;5025295;28;20044;-60
2022/08/08 03:40:38;;;;;;;12.68;7.50;;;14.70;99.90;;;;;;5022033;28;20030;-60
2022/08/08 03:43:07;;;;;;;9.55;6.95;;;14.70;99.90;;;;;;5020462;28;20148;-58
2022/08/08 03:45:35;;;;;;;10.60;7.85;;;14.70;99.90;;;;;;5019723;28;20084;-60
2022/08/08 03:48:09;;;;;;;10.63;7.43;;;14.50;99.90;;;;;;5021035;28;20449;-60
2022/08/08 03:50:35;;;;;;;;;;;14.60;99.90;;;;;;5027110;28;20021;-60
2022/08/08 03:53:13;;;;;;;11.75;7.65;;;14.50;99.90;;;;;;5023739;28;19921;-59
2022/08/08 03:55:40;;;;;;;13.52;8.07;;;14.60;99.90;;;;;;5026305;28;20028;-59
2022/08/08 03:58:07;;;;;;;13.88;8.40;;;14.70;99.90;;;;;;5022550;28;20491;-59
2022/08/08 04:00:33;;;;;;;12.40;8.45;;;14.60;99.90;;;;;;5022853;28;20021;-59
2022/08/08 04:03:04;;;;;;;15.57;8.32;;;14.70;99.90;;;;;;5019700;28;20026;-59
2022/08/08 04:05:36;;;;;;;10.38;8.40;;;14.60;99.90;;;;;;5025276;28;20469;-60
2022/08/08 04:08:06;;;;;;;12.15;8.02;;;14.60;99.90;;;;;;5022617;28;20017;-61
2022/08/08 04:10:34;;;;;;;12.63;8.25;;;14.80;99.90;;;;;;5026351;28;20064;-59
2022/08/08 04:13:00;;;;;;;13.98;8.80;;;14.70;99.90;;;;;;5023883;28;20117;-59
2022/08/08 04:15:26;;;;;;;10.75;8.73;;;14.60;99.90;;;;;;5027461;28;20025;-60
2022/08/08 04:17:52;;;;;;;13.23;8.50;;;14.60;99.90;;;;;;5029473;28;20036;-60
2022/08/08 04:20:17;;;;;;;13.02;8.85;;;14.70;99.90;;;;;;5032696;28;20422;-59
2022/08/08 04:22:43;;;;;;;13.43;8.70;;;14.80;99.90;;;;;;5027048;28;20099;-60
2022/08/08 04:25:09;;;;;;;13.00;8.63;;;14.60;99.90;;;;;;5025439;28;20046;-60
2022/08/08 04:27:35;;;;;;;11.88;8.70;;;14.50;99.90;;;;;;5032918;28;20071;-59
2022/08/08 04:30:03;;;;;;;12.13;8.57;;;14.70;99.90;;;;;;5026642;28;20021;-59
2022/08/08 04:32:29;;;;;;;15.98;8.52;;;14.70;99.90;;;;;;5026320;28;20583;-60
2022/08/08 04:34:55;;;;;;;13.20;8.73;;;14.70;99.90;;;;;;5027343;28;20021;-60
2022/08/08 04:37:20;;;;;;;12.15;9.32;;;15.10;99.90;;;;;;5027711;28;20469;-60
2022/08/08 04:39:46;;;;;;;11.85;8.60;;;14.60;99.90;;;;;;5019938;28;20032;-59
2022/08/08 04:42:12;;;;;;;12.43;8.23;;;14.80;99.90;;;;;;5029830;28;20087;-60
2022/08/08 04:44:37;;;;;;;12.13;9.65;;;14.90;99.90;;;;;;5029896;28;20036;-59
2022/08/08 04:47:03;;;;;;;16.83;9.43;;;15.00;99.90;;;;;;5024394;28;20018;-59
2022/08/08 04:49:30;;;;;;;11.82;9.07;;;;;;;;;;5025217;28;20037;-60
2022/08/08 04:51:55;;;;;;;11.80;8.95;;;15.00;99.90;;;;;;5025578;28;20041;-60
2022/08/08 04:54:21;;;;;;;12.43;8.80;;;14.90;99.90;;;;;;5025538;28;20110;-59
2022/08/08 04:56:47;;;;;;;12.57;8.98;;;;;;;;;;5026911;28;20512;-60
2022/08/08 04:59:13;;;;;;;11.40;8.40;;;15.20;99.90;;;;;;5030359;28;20061;-60
2022/08/08 05:01:40;;;;;;;12.82;9.05;;;;;;;;;;5024057;28;20094;-60
2022/08/08 05:04:05;;;;;;;13.75;8.93;;;14.90;99.90;;;;;;5028536;28;20037;-60
2022/08/08 05:06:31;;;;;;;11.13;8.98;;;15.20;99.90;;;;;;5027389;28;20026;-59
2022/08/08 05:08:57;;;;;;;11.85;9.10;;;15.20;99.90;;;;;;5024567;28;20017;-59
2022/08/08 05:11:22;;;;;;;13.05;9.50;;;15.10;99.90;;;;;;5025531;28;20030;-59
2022/08/08 05:13:48;;;;;;;16.05;10.05;;;15.20;99.90;;;;;;5025101;28;20145;-60
2022/08/08 05:16:13;;;;;;;11.82;9.63;;;15.20;99.90;;;;;;5024365;28;20061;-60
2022/08/08 05:18:39;;;;;;;13.98;9.63;;;15.20;99.90;;;;;;5025226;28;20025;-60
2022/08/08 05:21:09;;;;;;;14.32;10.27;;;15.20;99.90;;;;;;5025747;28;20030;-60
2022/08/08 05:23:35;;;;;;;13.80;10.13;;;15.30;99.90;;;;;;5025000;28;20048;-60
2022/08/08 05:26:01;;;;;;;14.55;10.27;;;15.40;99.90;;;;;;5025606;28;20026;-59
2022/08/08 05:28:27;;;;;;;13.95;10.30;;;15.40;99.90;;;;;;5028300;28;20471;-59
2022/08/08 05:30:53;;;;;;;14.00;9.88;;;15.30;99.90;;;;;;5024727;28;20053;-59
2022/08/08 05:33:18;;;;;;;13.18;10.43;;;15.20;99.90;;;;;;5025975;28;20033;-59
2022/08/08 05:35:46;;;;;;;13.13;10.57;;;15.20;99.90;;;;;;5023500;28;20725;-60
2022/08/08 05:38:16;;;;;;;16.35;10.25;;;15.30;99.90;;;;;;5024372;28;20095;-60
2022/08/08 05:40:47;;;;;;;15.80;10.55;;;15.50;99.90;;;;;;5021363;28;20037;-59
2022/08/08 05:43:23;;;;;;;17.95;10.40;;;15.60;99.90;;;;;;5024026;28;20633;-59
2022/08/08 05:45:49;;;;;;;16.75;10.57;;;15.60;99.90;;;;;;5019495;28;20254;-59
2022/08/08 05:48:16;;;;;;;15.48;10.70;;;15.70;99.90;;;;;;5024179;28;20033;-60
2022/08/08 05:50:42;;;;;;;13.95;9.98;;;15.80;99.90;;;;;;5021431;28;20037;-58
2022/08/08 05:53:08;;;;;;;15.93;10.65;;;15.80;99.90;;;;;;5025413;28;20032;-60
2022/08/08 05:55:34;;;;;;;16.90;9.75;;;15.80;99.90;;;;;;5024037;28;20029;-60
2022/08/08 05:58:00;;;;;;;14.85;9.80;;;16.00;99.90;;;;;;5023452;28;20388;-60
2022/08/08 06:00:31;;;;;;;18.45;10.23;;;16.40;99.90;;;;;;5024139;28;20076;-61
2022/08/08 06:03:10;;;;;;;16.17;10.13;;;16.40;99.90;;;;;;5025508;28;20041;-59
2022/08/08 06:05:59;;;;;;;17.67;10.75;;;16.40;99.90;;;;;;5025593;28;20116;-59
2022/08/08 06:08:33;;;;;;;16.08;9.98;;;16.30;99.90;;;;;;5026760;28;20021;-61
2022/08/08 06:10:59;;;;;;;;;;;16.40;99.90;;;;;;5024558;28;20521;-59
2022/08/08 06:13:27;;;;;;;16.00;9.98;;;16.70;99.90;;;;;;5026354;28;20008;-60
2022/08/08 06:15:54;;;;;;;15.80;9.50;;;16.80;99.90;;;;;;5026735;28;20079;-61
2022/08/08 06:18:24;;;;;;;20.02;9.45;;;16.70;99.90;;;;;;5021198;28;20025;-60
2022/08/08 06:20:55;;;;;;;15.18;9.82;;;16.80;99.90;;;;;;5025202;28;20034;-60
2022/08/08 06:23:21;;;;;;;12.68;8.25;;;16.80;99.90;;;;;;5022034;28;20037;-61
2022/08/08 06:26:02;;;;;;;19.70;9.38;;;16.90;99.90;;;;;;5019334;28;20028;-59
2022/08/08 06:28:33;;;;;;;12.63;8.90;;;16.90;99.90;;;;;;5025975;28;20017;-60
2022/08/08 06:31:03;;;;;;;16.45;8.43;;;17.10;99.90;;;;;;5028525;28;20033;-59
2022/08/08 06:33:39;;;;;;;17.35;9.32;;;17.20;99.90;;;;;;5024549;28;20134;-60
2022/08/08 06:36:06;;;;;;;20.77;10.02;;;17.30;99.90;;;;;;5022783;28;20033;-60
2022/08/08 06:38:36;;;;;;;18.63;9.77;;;17.30;99.90;;;;;;5019767;28;20044;-59
2022/08/08 06:41:11;;;;;;;20.02;9.70;;;17.50;99.90;;;;;;5020790;28;20029;-60
2022/08/08 06:43:42;;;;;;;22.98;11.00;;;17.50;99.90;;;;;;5021381;28;20455;-60
2022/08/08 06:46:08;;;;;;;22.13;11.25;;;17.50;99.90;;;;;;5022811;28;20029;-59
2022/08/08 06:48:35;;;;;;;20.80;11.45;;;17.60;99.90;;;;;;5021853;28;20021;-60
2022/08/08 06:51:03;;;;;;;18.38;10.35;;;17.80;99.90;;;;;;5037143;28;20025;-61
2022/08/08 06:53:29;;;;;;;17.02;10.32;;;17.80;99.90;;;;;;5020902;28;20056;-61
2022/08/08 06:55:55;;;;;;;17.45;10.75;;;17.70;99.90;;;;;;5019738;28;20044;-60
2022/08/08 06:58:21;;;;;;;14.05;9.32;;;17.80;99.90;;;;;;5022894;28;20037;-60
2022/08/08 07:00:49;;;;;;;15.98;9.30;;;17.80;99.90;;;;;;5019252;28;20757;-60
2022/08/08 07:03:49;;;;;;;16.00;9.52;;;18.00;99.90;;;;;;5017756;28;20588;-60
2022/08/08 07:06:18;;;;;;;14.15;9.50;;;18.20;99.90;;;;;;5010588;28;20052;-61
2022/08/08 07:08:46;;;;;;;13.68;8.85;;;18.10;99.90;;;;;;5022027;28;20079;-60
2022/08/08 07:11:16;;;;;;;17.58;9.95;;;18.10;99.90;;;;;;5019310;28;20392;-60
2022/08/08 07:13:44;;;;;;;16.40;9.40;;;18.20;99.90;;;;;;5023734;28;20021;-60
2022/08/08 07:16:12;;;;;;;14.98;9.20;;;18.30;99.90;;;;;;5025398;28;20029;-60
2022/08/08 07:19:05;;;;;;;14.35;8.50;;;18.30;99.90;;;;;;5021300;28;20116;-61
2022/08/08 07:21:41;;;;;;;17.50;8.40;;;18.50;99.90;;;;;;5023111;28;20422;-61
2022/08/08 07:24:12;;;;;;;13.68;7.90;;;18.60;99.90;;;;;;5026536;28;20025;-61
2022/08/08 07:26:42;;;;;;;12.93;7.57;;;18.60;99.90;;;;;;5020526;28;20083;-61
2022/08/08 07:29:08;;;;;;;12.38;6.50;;;18.80;99.90;;;;;;5021513;28;20041;-61
2022/08/08 07:31:34;;;;;;;13.82;6.88;;;18.90;99.90;;;;;;5019917;28;20018;-61
2022/08/08 07:34:01;;;;;;;13.10;7.22;;;18.90;99.90;;;;;;5018545;28;20083;-62
2022/08/08 07:36:27;;;;;;;13.93;6.75;;;19.00;99.90;;;;;;5023277;28;20037;-61
2022/08/08 07:38:54;;;;;;;10.30;7.47;;;19.10;99.90;;;;;;5022731;28;20037;-60
2022/08/08 07:41:21;;;;;;;13.68;7.72;;;19.00;99.90;;;;;;5018358;28;20061;-61
2022/08/08 07:43:48;;;;;;;12.57;7.15;;;19.10;99.90;;;;;;5024134;28;20029;-61
2022/08/08 07:46:14;;;;;;;14.30;7.35;;;19.20;99.90;;;;;;5025870;28;20090;-61
2022/08/08 07:48:40;;;;;;;9.68;6.65;;;19.30;99.90;;;;;;5028016;28;20033;-61
2022/08/08 07:51:08;;;;;;;10.32;6.25;;;19.40;99.90;;;;;;5027753;28;20064;-61
2022/08/08 07:53:41;;;;;;;8.77;6.18;;;19.50;99.90;;;;;;5028924;28;20082;-61
2022/08/08 07:56:09;;;;;;;6.53;5.30;;;19.60;99.90;;;;;;5028351;28;20132;-61
2022/08/08 07:58:41;;;;;;;9.60;5.22;;;19.60;99.90;;;;;;5032389;28;20052;-62
2022/08/08 08:01:10;;;;;;;8.40;5.30;;;19.50;99.90;;;;;;5029034;28;20033;-61
2022/08/08 08:03:52;;;;;;;10.20;5.07;;;19.50;99.90;;;;;;5044879;28;20044;-61
2022/08/08 08:06:19;;;;;;;11.00;5.32;;;19.50;99.90;;;;;;5024686;28;20569;-61
2022/08/08 08:09:08;;;;;;;10.07;5.68;;;19.60;99.90;;;;;;5026735;28;20017;-61
2022/08/08 08:11:35;;;;;;;8.18;4.88;;;19.80;99.90;;;;;;5027568;28;20037;-61
2022/08/08 08:14:05;;;;;;;10.65;5.20;;;19.80;99.90;;;;;;5030311;28;20772;-61
2022/08/08 08:16:38;;;;;;;8.05;4.85;;;19.70;99.90;;;;;;5028114;28;20030;-61
2022/08/08 08:19:11;;;;;;;7.50;5.05;;;19.80;99.90;;;;;;5030680;28;20033;-61
2022/08/08 08:21:39;;;;;;;6.85;4.95;;;20.00;99.90;;;;;;5028616;28;20574;-61
2022/08/08 08:24:05;;;;;;;6.88;5.00;;;20.10;99.90;;;;;;5033461;28;20429;-61
2022/08/08 08:26:31;;;;;;;7.85;5.20;;;20.10;99.90;;;;;;5029609;28;20032;-61
2022/08/08 08:28:57;;;;;;;8.18;4.93;;;20.10;99.90;;;;;;5028307;28;20032;-61
2022/08/08 08:31:23;;;;;;;7.70;4.85;;;20.20;99.90;;;;;;5028642;28;20033;-61
2022/08/08 08:33:49;;;;;;;9.48;5.15;;;20.30;99.90;;;;;;5026856;28;20041;-61
2022/08/08 08:36:14;;;;;;;7.20;5.03;;;20.30;99.90;;;;;;5026789;28;20053;-62
2022/08/08 08:38:41;;;;;;;7.72;5.03;;;20.30;99.90;;;;;;5023120;28;20025;-62
2022/08/08 08:41:10;;;;;;;8.52;4.72;;;20.40;99.90;;;;;;5020795;28;20124;-62
2022/08/08 08:43:38;;;;;;;9.32;4.60;;;20.30;99.90;;;;;;5026627;28;20025;-62
2022/08/08 08:46:08;;;;;;;5.97;4.13;;;20.50;99.90;;;;;;5023774;28;20698;-62
2022/08/08 08:48:33;;;;;;;7.40;4.60;;;20.60;99.90;;;;;;5026287;28;20385;-62
2022/08/08 08:51:01;;;;;;;7.72;4.55;;;20.80;99.90;;;;;;5026816;28;20032;-62
2022/08/08 08:53:26;;;;;;;8.95;4.70;;;20.80;99.90;;;;;;5026316;28;20815;-63
2022/08/08 08:55:54;;;;;;;8.07;4.40;;;20.90;99.90;;;;;;5025487;28;20071;-62
2022/08/08 08:58:40;;;;;;;6.53;4.35;;;21.00;99.90;;;;;;5025800;28;20116;-66
2022/08/08 09:01:08;;;;;;;6.53;4.10;;;21.20;99.90;;;;;;5024329;28;20125;-63
2022/08/08 09:03:34;;;;;;;6.65;4.00;;;21.10;99.90;;;;;;5029000;28;20492;-60
2022/08/08 09:06:01;;;;;;;8.80;4.10;;;21.10;99.90;;;;;;5023678;28;20034;-60
2022/08/08 09:08:28;;;;;;;10.60;4.45;;;21.20;99.90;;;;;;5028758;28;20025;-60
2022/08/08 09:10:55;;;;;;;6.68;4.20;;;21.30;99.90;;;;;;5029828;28;20021;-60
2022/08/08 09:13:21;;;;;;;8.15;3.92;;;21.20;99.90;;;;;;5019619;28;20021;-60
2022/08/08 09:15:47;;;;;;;6.35;3.55;;;21.10;99.90;;;;;;5023397;28;20044;-60
2022/08/08 09:18:16;;;;;;;5.45;3.80;;;21.10;99.90;;;;;;5026039;28;20060;-60
2022/08/08 09:20:45;;;;;;;5.78;3.97;;;21.10;99.90;;;;;;5027533;28;20032;-60
2022/08/08 09:23:13;;;;;;;8.73;4.03;;;21.20;99.90;;;;;;5022432;28;20033;-60
2022/08/08 09:26:05;;;;;;;7.15;3.90;;;21.40;99.90;;;;;;5024842;28;20026;-61
2022/08/08 09:28:36;;;;;;;7.63;4.30;;;21.50;99.90;;;;;;5008137;28;20527;-60
2022/08/08 09:31:09;;;;;;;6.72;3.53;;;21.60;99.90;;;;;;5026064;28;20022;-60
2022/08/08 09:33:35;;;;;;;;;;;21.60;99.90;;;;;;5025333;28;20670;-61
2022/08/08 09:36:01;;;;;;;3.75;3.33;;;21.70;99.90;;;;;;5022853;28;19913;-60
2022/08/08 09:38:37;;;;;;;18.48;13.93;;;21.70;99.90;;;;;;5015304;28;20453;-61
2022/08/08 09:41:05;;;;;;;6.05;3.53;;;21.60;99.90;;;;;;5021916;28;20096;-60
2022/08/08 09:43:41;;;;;;;7.00;3.60;;;21.80;99.90;;;;;;5022304;28;20091;-59
2022/08/08 09:46:09;;;;;;;5.72;3.58;;;22.00;99.90;;;;;;5013954;28;20027;-60
2022/08/08 09:48:37;;;;;;;6.05;3.60;;;22.00;99.90;;;;;;5002528;28;20963;-60
2022/08/08 09:51:03;;;;;;;4.30;3.08;;;22.00;99.90;;;;;;5018576;28;20079;-59
2022/08/08 09:53:48;;;;;;;5.95;3.53;;;22.20;99.90;;;;;;5026757;28;20057;-60
2022/08/08 09:56:16;;;;;;;5.75;3.38;;;22.20;99.90;;;;;;5025662;28;20390;-59
2022/08/08 09:58:59;;;;;;;6.47;3.70;;;22.30;99.90;;;;;;5021330;28;20021;-59
2022/08/08 10:01:26;;;;;;;4.93;3.25;;;22.40;99.90;;;;;;5023129;28;20475;-60
2022/08/08 10:03:56;;;;;;;5.05;3.00;;;22.30;99.90;;;;;;5021811;28;20056;-59
2022/08/08 10:06:21;;;;;;;5.75;3.35;;;22.40;99.90;;;;;;5014983;28;20129;-59
2022/08/08 10:08:49;;;;;;;6.53;3.50;;;22.40;99.90;;;;;;5011122;28;20033;-60
2022/08/08 10:11:20;;;;;;;4.25;3.05;;;22.30;99.90;;;;;;5016008;28;20022;-59
2022/08/08 10:14:02;;;;;;;4.90;3.53;;;22.60;99.90;;;;;;5022175;28;20032;-60
2022/08/08 10:16:39;;;;;;;8.13;3.80;;;22.60;99.90;;;;;;5022671;28;20079;-59
2022/08/08 10:19:07;;;;;;;5.93;4.30;;;22.40;99.90;;;;;;5017866;28;20041;-55
2022/08/08 10:21:34;;;;;;;5.75;4.47;;;22.50;99.90;;;;;;5020927;28;20128;-58
2022/08/08 10:24:05;;;;;;;6.82;5.63;;;22.60;99.90;;;;;;5020668;28;20029;-59
2022/08/08 10:26:37;;;;;;;5.43;3.92;;;22.70;99.90;;;;;;5021322;28;20392;-59
2022/08/08 10:29:04;;;;;;;7.45;3.40;;;22.60;99.90;;;;;;5023243;28;20030;-59
2022/08/08 10:34:19;;;;;;;7.10;4.07;;;22.70;99.90;;;;;;5022474;28;20035;-60
2022/08/08 10:36:45;;;;;;;5.85;3.97;;;22.90;99.90;;;;;;5024726;28;20500;-59
2022/08/08 10:39:20;;;;;;;8.38;3.85;;;22.60;99.90;;;;;;5020530;28;20499;-60
2022/08/08 10:41:55;;;;;;;7.30;3.83;;;22.60;99.90;;;;;;5025371;28;20488;-60
2022/08/08 10:44:38;;;;;;;4.82;3.20;;;22.80;99.90;;;;;;5017296;28;20034;-60
2022/08/08 10:47:15;;;;;;;5.28;3.40;;;23.00;99.90;;;;;;5018256;28;20018;-61
2022/08/08 10:49:49;;;;;;;9.35;4.55;;;23.00;99.90;;;;;;5019313;28;20110;-60
2022/08/08 10:52:33;;;;;;;5.93;3.78;;;22.90;99.90;;;;;;5022644;28;20025;-60
2022/08/08 10:55:08;;;;;;;6.93;3.75;;;22.90;99.90;;;;;;5020997;28;20124;-60
2022/08/08 10:57:41;;;;;;;5.15;3.33;;;22.90;99.90;;;;;;5023377;28;20095;-60
2022/08/08 11:00:10;;;;;;;5.60;3.83;;;22.90;99.90;;;;;;5022568;28;20531;-59
2022/08/08 11:02:36;;;;;;;7.80;4.25;;;23.10;99.90;;;;;;5022370;28;20072;-60
2022/08/08 11:05:11;;;;;;;5.82;3.30;;;23.10;99.90;;;;;;5021862;28;20089;-59
2022/08/08 11:07:41;;;;;;;5.60;3.92;;;23.20;99.90;;;;;;5021776;28;20030;-59
2022/08/08 11:10:12;;;;;;;5.35;3.63;;;23.30;99.90;;;;;;5022441;28;20021;-60
2022/08/08 11:12:52;;;;;;;6.55;3.80;;;23.00;99.90;;;;;;5023117;28;20859;-59
2022/08/08 11:15:23;;;;;;;7.75;3.75;;;23.10;99.90;;;;;;5025666;28;20073;-59
2022/08/08 11:17:50;;;;;;;6.68;3.60;;;22.80;99.90;;;;;;5016164;28;20034;-60
2022/08/08 11:20:24;;;;;;;7.20;4.05;;;23.00;99.90;;;;;;5025719;28;20119;-60
2022/08/08 11:22:58;;;;;;;5.60;3.65;;;23.20;99.90;;;;;;5023176;28;20124;-60
2022/08/08 11:25:27;;;;;;;4.85;3.97;;;23.30;99.90;;;;;;5021441;28;20029;-60
2022/08/08 11:27:55;;;;;;;7.57;3.60;;;23.10;99.90;;;;;;5020015;28;20507;-60
2022/08/08 11:30:22;;;;;;;5.88;3.13;;;23.20;99.90;;;;;;5020625;28;20434;-60
2022/08/08 11:32:57;;;;;;;6.53;3.30;;;23.20;99.90;;;;;;5019068;28;20031;-59
2022/08/08 11:35:24;;;;;;;7.50;3.50;;;23.40;99.90;;;;;;5021402;28;20026;-59
2022/08/08 11:37:50;;;;;;;4.90;3.35;;;23.50;99.90;;;;;;5024952;28;20041;-60
2022/08/08 11:40:15;;;;;;;4.40;3.17;;;23.40;99.90;;;;;;5017690;28;20068;-59
2022/08/08 11:42:42;;;;;;;5.75;3.58;;;23.10;99.90;;;;;;5017417;28;20124;-62
2022/08/08 11:45:09;;;;;;;5.30;3.20;;;23.20;99.90;;;;;;5021044;28;20017;-62
2022/08/08 11:47:37;;;;;;;4.88;3.13;;;23.20;99.90;;;;;;5020801;28;20053;-62
2022/08/08 11:50:07;;;;;;;5.95;3.78;;;23.30;99.90;;;;;;5021607;28;20071;-61
2022/08/08 11:52:34;;;;;;;5.85;3.60;;;23.20;99.90;;;;;;5022049;28;20124;-61
2022/08/08 11:55:00;;;;;;;6.05;3.40;;;23.20;99.90;;;;;;5012280;28;20021;-61
2022/08/08 11:57:28;;;;;;;5.07;3.60;;;23.20;99.90;;;;;;5017473;28;20379;-61
2022/08/08 11:59:59;;;;;;;7.03;3.30;;;23.30;99.90;;;;;;5020966;28;20452;-62
2022/08/08 12:02:28;;;;;;;6.90;3.58;;;23.60;99.90;;;;;;5016598;28;20024;-61
2022/08/08 12:05:01;;;;;;;8.77;3.40;;;23.40;99.90;;;;;;5018466;28;20555;-62
2022/08/08 12:07:27;;;;;;;7.10;3.60;;;23.40;99.90;;;;;;5021178;28;20045;-61
2022/08/08 12:09:55;;;;;;;3.95;2.92;;;23.20;99.90;;;;;;5020234;28;20024;-62
2022/08/08 12:12:23;;;;;;;5.18;2.80;;;23.50;99.90;;;;;;5014791;28;20346;-60
2022/08/08 12:14:59;;;;;;;3.97;2.97;;;23.60;99.90;;;;;;5020553;28;20033;-62
2022/08/08 12:17:35;;;;;;;5.20;2.85;;;23.40;99.90;;;;;;5023916;28;20040;-61
2022/08/08 12:20:03;;;;;;;4.25;2.80;;;23.50;99.90;;;;;;5020665;28;20028;-62
2022/08/08 12:22:31;;;;;;;3.65;2.88;;;24.10;99.90;;;;;;5021605;28;20029;-63
2022/08/08 12:24:57;;;;;;;5.35;2.38;;;23.50;99.90;;;;;;5019581;28;20029;-60
2022/08/08 12:27:23;;;;;;;6.32;2.75;;;23.70;99.90;;;;;;5016705;28;20272;-63
2022/08/08 12:29:57;;;;;;;4.55;3.10;;;23.70;99.90;;;;;;5019521;28;20859;-60
2022/08/08 12:32:24;;;;;;;7.05;2.83;;;23.80;99.90;;;;;;5025304;28;20099;-63
2022/08/08 12:34:50;;;;;;;3.67;2.50;;;23.60;99.90;;;;;;5032014;28;20040;-63
2022/08/08 12:37:25;;;;;;;3.95;2.55;;;23.70;99.90;;;;;;5020126;28;20037;-63
2022/08/08 12:39:54;;;;;;;7.55;2.67;;;23.60;99.90;;;;;;5015054;28;20131;-62
2022/08/08 12:42:20;;;;;;;4.32;2.53;;;23.80;99.90;;;;;;5023102;28;20084;-62
2022/08/08 12:44:46;;;;;;;5.75;2.80;;;23.70;99.90;;;;;;5024457;28;20033;-61
2022/08/08 12:47:15;;;;;;;4.07;2.42;;;23.60;99.90;;;;;;5025136;28;20029;-62
2022/08/08 12:49:44;;;;;;;4.93;2.40;;;23.50;99.90;;;;;;5024589;28;20052;-62
2022/08/08 12:52:19;;;;;;;7.68;2.60;;;23.50;99.90;;;;;;5020458;28;20034;-62
2022/08/08 12:54:45;;;;;;;6.93;2.40;;;23.30;99.90;;;;;;5021961;28;20052;-61
2022/08/08 12:57:19;;;;;;;3.05;2.25;;;23.50;99.90;;;;;;5022249;28;20061;-62
2022/08/08 12:59:52;;;;;;;4.65;2.40;;;23.60;99.90;;;;;;5027379;28;20083;-61
2022/08/08 13:02:40;;;;;;;4.32;2.30;;;23.70;99.90;;;;;;5023918;28;20495;-62
2022/08/08 13:05:18;;;;;;;4.78;2.00;;;24.00;99.90;;;;;;5022813;28;20396;-62
2022/08/08 13:07:44;;;;;;;4.32;2.00;;;23.90;99.90;;;;;;5022794;28;20052;-62
2022/08/08 13:10:13;;;;;;;2.75;1.88;;;23.70;99.90;;;;;;5023738;28;20788;-60
2022/08/08 13:12:44;;;;;;;4.90;1.85;;;23.90;99.90;;;;;;5023180;28;20040;-61
2022/08/08 13:15:15;;;;;;;3.03;1.95;;;23.90;99.90;;;;;;5021808;28;20037;-61
2022/08/08 13:17:42;;;;;;;3.85;2.20;;;23.80;99.90;;;;;;5018801;28;20108;-62
2022/08/08 13:20:16;;;;;;;6.82;2.25;;;23.70;99.90;;;;;;5024090;28;20049;-60
2022/08/08 13:22:43;;;;;;;3.63;1.90;;;23.70;99.90;;;;;;5015324;28;20081;-58